createdAt,value
2022-07-29T00:10:02.279Z,9.33
2022-07-29T00:13:10.313Z,10.07
2022-07-29T00:58:35.808Z,10.53
2022-07-29T01:01:03.404Z,10.97
2022-07-29T01:03:39.544Z,7.60
2022-07-29T01:06:23.343Z,8.60
2022-07-29T01:12:43.807Z,10.50
2022-07-29T01:15:11.421Z,9.13
2022-07-29T01:17:57.764Z,8.67
2022-07-29T01:21:18.051Z,6.17
2022-07-29T01:23:56.625Z,10.07
2022-07-29T01:26:47.606Z,8.60
2022-07-29T01:29:23.981Z,6.10
2022-07-29T01:32:00.928Z,9.33
2022-07-29T01:34:49.487Z,8.93
2022-07-29T01:37:39.794Z,13.17
2022-07-29T01:40:22.416Z,11.97
2022-07-29T01:42:56.874Z,12.63
2022-07-29T01:45:42.744Z,13.88
2022-07-29T01:48:48.355Z,13.87
2022-07-29T01:51:39.249Z,16.60
2022-07-29T01:54:14.141Z,13.73
2022-07-29T01:56:44.627Z,12.50
2022-07-29T01:59:12.741Z,13.43
2022-07-29T02:01:43.981Z,14.60
2022-07-29T02:04:26.619Z,11.63
2022-07-29T02:09:26.452Z,13.67
2022-07-29T02:11:56.491Z,13.43
2022-07-29T02:14:24.607Z,11.77
2022-07-29T02:16:55.402Z,10.50
2022-07-29T02:19:24.575Z,8.17
2022-07-29T02:21:56.124Z,9.63
2022-07-29T02:24:25.581Z,18.93
2022-07-29T02:26:56.230Z,11.30
2022-07-29T02:29:27.249Z,9.03
2022-07-29T02:31:54.551Z,14.33
2022-07-29T02:34:22.335Z,11.53
2022-07-29T02:36:51.687Z,10.20
2022-07-29T02:39:20.036Z,11.43
2022-07-29T02:42:04.583Z,9.47
2022-07-29T02:44:34.898Z,10.20
2022-07-29T02:47:26.165Z,9.63
2022-07-29T02:50:01.189Z,10.43
2022-07-29T02:52:41.101Z,12.80
2022-07-29T02:55:08.076Z,12.03
2022-07-29T02:58:01.987Z,13.10
2022-07-29T03:00:32.280Z,12.70
2022-07-29T03:03:02.394Z,19.63
2022-07-29T03:05:30.286Z,11.20
2022-07-29T03:08:01.516Z,11.00
2022-07-29T03:10:29.474Z,10.90
2022-07-29T03:12:57.658Z,11.37
2022-07-29T03:15:27.124Z,13.20
2022-07-29T03:25:54.015Z,9.77
2022-07-29T03:30:04.601Z,17.30
2022-07-29T03:32:32.819Z,12.87
2022-07-29T03:35:36.612Z,11.07
2022-07-29T03:42:19.129Z,6.97
2022-07-29T03:51:52.709Z,10.40
2022-07-29T03:54:23.351Z,10.70
2022-07-29T03:56:53.131Z,11.70
2022-07-29T03:59:22.728Z,15.20
2022-07-29T04:01:54.105Z,13.47
2022-07-29T04:04:21.681Z,23.13
2022-07-29T04:07:01.100Z,28.67
2022-07-29T04:09:35.069Z,22.93
2022-07-29T04:12:10.083Z,11.90
2022-07-29T04:14:37.849Z,11.63
2022-07-29T04:17:08.897Z,9.23
2022-07-29T04:19:36.283Z,11.03
2022-07-29T04:22:03.362Z,17.00
2022-07-29T04:24:30.612Z,12.53
2022-07-29T04:26:57.522Z,12.13
2022-07-29T04:29:24.455Z,13.37
2022-07-29T04:31:51.466Z,14.90
2022-07-29T04:34:19.084Z,15.43
2022-07-29T04:36:46.823Z,16.57
2022-07-29T04:39:22.453Z,14.87
2022-07-29T04:42:08.544Z,25.57
2022-07-29T04:45:15.378Z,22.42
2022-07-29T04:47:50.719Z,19.80
2022-07-29T04:50:18.175Z,18.70
2022-07-29T04:53:09.797Z,22.37
2022-07-29T05:04:09.265Z,14.77
2022-07-29T05:06:48.514Z,12.50
2022-07-29T05:09:16.183Z,13.17
2022-07-29T05:11:59.832Z,12.83
2022-07-29T05:15:11.370Z,10.97
2022-07-29T05:32:21.447Z,8.77
2022-07-29T09:12:29.613Z,3.03
2022-07-29T09:15:16.847Z,1.33
2022-07-29T09:17:55.767Z,2.50
2022-07-29T09:24:21.280Z,2.90
2022-07-29T09:26:52.357Z,1.20
2022-07-29T09:30:01.231Z,3.63
2022-07-29T09:36:29.771Z,3.47
2022-07-29T09:39:13.324Z,3.00
2022-07-29T09:45:54.227Z,2.20
2022-07-29T09:48:49.138Z,2.00
2022-07-29T09:51:43.954Z,2.00
2022-07-29T09:54:59.804Z,2.72
2022-07-29T09:58:01.446Z,1.20
2022-07-29T10:01:40.485Z,1.47
2022-07-29T10:08:13.725Z,3.90
2022-07-29T10:27:33.616Z,1.13
2022-07-29T10:36:06.985Z,0.50
2022-07-29T10:42:01.853Z,1.90
2022-07-29T10:45:04.878Z,1.03
2022-07-29T10:51:34.991Z,2.97
2022-07-29T11:24:06.828Z,0.50
2022-07-29T12:12:01.974Z,0.90
2022-07-29T12:23:07.372Z,2.13
2022-07-29T12:43:03.181Z,0.40
2022-07-29T12:46:18.389Z,1.47
2022-07-29T12:49:04.098Z,2.63
2022-07-29T12:51:39.130Z,0.50
2022-07-29T12:56:44.502Z,1.13
2022-07-29T12:59:14.763Z,1.47
2022-07-29T13:01:41.809Z,3.70
2022-07-29T13:04:09.151Z,1.80
2022-07-29T13:06:45.711Z,5.57
2022-07-29T13:09:14.481Z,0.60
2022-07-29T13:11:50.516Z,1.77
2022-07-29T13:14:44.293Z,2.17
2022-07-29T13:17:12.721Z,0.67
2022-07-29T13:19:43.562Z,1.30
2022-07-29T13:22:16.172Z,1.80
2022-07-29T13:24:57.000Z,1.57
2022-07-29T13:27:26.696Z,1.00
2022-07-29T13:29:57.922Z,0.97
2022-07-29T13:32:29.138Z,1.10
2022-07-29T13:35:04.966Z,1.33
2022-07-29T13:38:48.400Z,2.87
2022-07-29T13:41:03.719Z,0.47
2022-07-29T13:50:09.876Z,0.70
2022-07-29T13:56:29.909Z,1.13
2022-07-29T13:59:29.804Z,0.63
2022-07-29T14:01:43.312Z,1.15
2022-07-29T14:15:32.159Z,0.90
2022-07-29T14:18:52.002Z,1.33
2022-07-29T14:21:25.795Z,1.77
2022-07-29T14:28:56.101Z,3.50
2022-07-29T14:32:15.036Z,3.57
2022-07-29T14:35:19.612Z,0.83
2022-07-29T14:38:15.604Z,0.90
2022-07-29T14:40:50.848Z,0.60
2022-07-29T14:43:36.750Z,1.05
2022-07-29T14:46:26.347Z,1.60
2022-07-29T14:51:43.492Z,1.67
2022-07-29T14:54:11.064Z,1.23
2022-07-29T14:57:29.122Z,4.23
2022-07-29T15:00:01.409Z,1.70
2022-07-29T15:02:52.259Z,0.50
2022-07-29T15:05:18.073Z,1.20
2022-07-29T15:07:45.173Z,3.23
2022-07-29T15:10:12.531Z,2.00
2022-07-29T15:12:42.523Z,1.60
2022-07-29T15:15:09.977Z,0.93
2022-07-29T15:17:37.140Z,1.60
2022-07-29T15:22:49.587Z,1.65
2022-07-29T15:25:25.757Z,1.07
2022-07-29T15:28:01.130Z,0.73
2022-07-29T15:30:32.857Z,1.07
2022-07-29T15:33:01.915Z,0.70
2022-07-29T15:35:28.963Z,3.10
2022-07-29T15:37:56.380Z,0.93
2022-07-29T15:40:23.951Z,1.40
2022-07-29T15:42:50.923Z,1.13
2022-07-29T15:45:18.410Z,1.47
2022-07-29T15:47:45.905Z,2.43
2022-07-29T15:50:33.026Z,1.70
2022-07-29T15:53:28.771Z,0.83
2022-07-29T15:59:31.487Z,1.70
2022-07-29T16:02:01.149Z,4.22
2022-07-29T16:04:41.612Z,0.67
2022-07-29T16:07:09.110Z,1.43
2022-07-29T16:09:39.433Z,1.30
2022-07-29T16:12:13.688Z,0.80
2022-07-29T16:14:43.537Z,1.80
2022-07-29T16:17:10.691Z,0.80
2022-07-29T16:19:44.611Z,1.57
2022-07-29T16:27:03.822Z,2.20
2022-07-29T16:33:56.108Z,3.57
2022-07-29T16:37:10.018Z,1.67
2022-07-29T16:39:45.534Z,0.40
2022-07-29T16:42:46.510Z,1.03
2022-07-29T16:45:45.283Z,1.00
2022-07-29T16:48:35.397Z,1.67
2022-07-29T16:51:29.223Z,0.87
2022-07-29T16:54:43.429Z,1.87
2022-07-29T16:57:27.778Z,1.90
2022-07-29T17:00:00.268Z,2.77
2022-07-29T17:02:40.026Z,1.93
2022-07-29T17:05:54.549Z,1.23
2022-07-29T17:09:10.504Z,1.40
2022-07-29T17:11:55.922Z,1.15
2022-07-29T17:34:03.037Z,0.90
2022-07-29T19:13:14.716Z,2.03
2022-07-29T19:23:24.581Z,2.53
2022-07-29T19:40:10.395Z,1.27
2022-07-29T19:45:42.693Z,1.10
2022-07-29T19:51:53.429Z,1.90
2022-07-29T19:55:05.298Z,2.17
2022-07-29T19:57:56.051Z,1.93
2022-07-29T20:07:59.411Z,2.23
2022-07-29T20:14:31.201Z,1.93
2022-07-29T20:17:21.888Z,2.43
2022-07-29T20:20:28.469Z,4.93
2022-07-29T20:27:44.470Z,3.20
2022-07-29T20:34:38.895Z,1.63
2022-07-29T20:40:36.727Z,1.63
2022-07-29T20:43:30.552Z,2.07
2022-07-29T20:46:30.401Z,2.73
2022-07-29T20:49:03.376Z,1.10
2022-07-29T20:51:43.896Z,2.77
2022-07-29T20:54:23.678Z,1.83
2022-07-29T20:57:00.508Z,3.10
2022-07-29T21:02:34.737Z,3.67
2022-07-29T21:05:19.320Z,1.70
2022-07-29T21:08:16.301Z,3.03
2022-07-29T21:10:54.122Z,2.23
2022-07-29T21:13:47.535Z,1.97
2022-07-29T21:16:37.372Z,3.13
2022-07-29T21:22:35.445Z,2.47
2022-07-29T21:25:22.413Z,1.63
2022-07-29T21:28:47.635Z,2.33
2022-07-29T21:32:07.102Z,1.47
2022-07-29T21:35:02.120Z,3.20
2022-07-29T21:38:26.032Z,3.90
2022-07-29T21:41:05.993Z,1.60
2022-07-29T21:43:46.774Z,1.90
2022-07-29T21:49:38.688Z,4.13
2022-07-29T21:52:13.816Z,2.30
2022-07-29T21:54:57.307Z,2.47
2022-07-29T21:57:29.030Z,2.20
2022-07-29T22:03:45.409Z,4.33
2022-07-29T22:06:29.514Z,2.37
2022-07-29T22:09:48.528Z,3.30
2022-07-29T22:12:32.373Z,2.43
2022-07-29T22:15:07.943Z,1.77
2022-07-29T22:18:46.562Z,2.53
2022-07-29T23:56:29.178Z,2.67
